Aérodrome :
LOGIN :

S'inscrire | Disclaimer

   EN    FR    IT 

 










Légende :    VFR   VFR Marginal   IFR   IFR Intensif   IFR Très Intensif
Visi : 
Plafond : 
>= 8 km
>= 3000ft
5 à 8 km
1000 à 3000 ft
1500m à 5 km
500 à 1000 ft
800 à 1500m
200 à 500 ft
< 800m
< 200 ft
Symboles :   Orages  Brouillard  Fortes neiges  Fortes précipitations  Vent > 20 kt
SIGMETs :   Divers  Orages  Givrage  Turbulence  Onde Orograph.  Cendres Volcan.







- Altitude de l'aérodrome : 1487 ft
- Code IATA : MUC


EDDM - München Franz Josef Strauss

DERNIER METAR :
  • 251420Z 05013KT 020V080 9999 FEW043TCU FEW046CB BKN110 21/15 Q1019 TEMPO 05015G25KT

METARs EXPIRÉS :
  • 251350Z 35007KT 300V080 9999 FEW043CB SCT110 23/13 Q1018 NOSIG
  • 251320Z 35006KT 300V040 9999 FEW043CB SCT110 24/13 Q1018 NOSIG
  • 251250Z 33005KT 240V030 9999 FEW040CB 23/13 Q1018 NOSIG
  • 251220Z 30006KT 260V350 9999 FEW033TCU FEW036CB 23/14 Q1018 NOSIG
  • 251150Z VRB02KT 9999 FEW033TCU FEW036CB 22/14 Q1018 NOSIG

TAF TAF EDDM
Valide du 25 à 12h jusqu'au 26 à 18h UTC


251100Z 2512/2618 03005KT 9999 SCT035
PROB30
TEMPO 2513/2516 05015G25KT TSRA SCT020 BKN030CB
BECMG 2517/2519 VRB02KT
BECMG 2600/2602 3000 BCFG
BECMG 2602/2604 1500 BCFG
PROB30
TEMPO 2604/2605 0900 FG
BECMG 2605/2607 07006KT 9999
Pas de NOTAMs connus pour ce terrain.



MET'MAP, la Météo Aéronautique d'un coup d'oeil ! - Copyright ORBIFLY Décembre 2007 - Disclaimer

ORBIFLY MET'MAP TEAM :

Programmation & Développement : Alexandra Zaïnal
Conception & Développement : Baudouin d'Aumeries
Co-Programmation & Développement : Marc-Olivier Méhu
Soutien technique & logistique : Manuel Goepfert

Contact : metmap@orbifly.com




SOURCES & CREDITS :

   NOAA